Time;durP1;ratioP1;P1;durP2;ratioP2;P2;SDS_P1;SDS_P2;PMS_P1;PMS_P2;Temp;Humidity;BMP_temperature;BMP_pressure;BME280_temperature;BME280_humidity;BME280_pressure;Samples;Min_cycle;Max_cycle;Signal;HPM_P1;HPM_P2
2023/05/02 00:01:53;;;;;;;9.15;3.30;;;;;;;15.66;54.54;98043.53;4456322;32;20101;-82
2023/05/02 00:04:21;;;;;;;9.07;3.22;;;;;;;16.03;52.84;98044.59;4456175;32;20578;-82
2023/05/02 00:06:48;;;;;;;8.13;3.10;;;;;;;16.03;52.97;98044.59;4455488;32;20097;-82
2023/05/02 00:09:15;;;;;;;8.82;3.22;;;;;;;17.00;50.14;98047.66;4456020;32;20081;-82
2023/05/02 00:11:42;;;;;;;7.18;2.90;;;;;;;16.93;50.68;98046.44;4456229;32;20093;-82
2023/05/02 00:14:09;;;;;;;8.70;3.12;;;;;;;16.86;50.85;98037.34;4455772;32;20084;-82
2023/05/02 00:16:36;;;;;;;8.23;2.80;;;;;;;17.51;48.94;98050.19;4454950;32;20093;-82
2023/05/02 00:19:03;;;;;;;7.50;3.03;;;;;;;17.12;49.04;98045.97;4455861;32;20157;-82
2023/05/02 00:21:31;;;;;;;8.57;2.92;;;;;;;17.87;47.02;98037.16;4455733;32;20101;-82
2023/05/02 00:23:59;;;;;;;7.80;3.00;;;;;;;17.32;48.43;98038.44;4456014;32;20111;-82
2023/05/02 00:26:26;;;;;;;11.35;3.55;;;;;;;17.16;49.16;98030.03;4455878;32;20169;-82
2023/05/02 00:28:53;;;;;;;7.32;2.90;;;;;;;16.86;50.17;98021.72;4455709;32;20085;-82
2023/05/02 00:31:20;;;;;;;8.27;2.90;;;;;;;16.33;52.53;98023.53;4455774;32;20505;-82
2023/05/02 00:33:47;;;;;;;7.22;2.80;;;;;;;16.37;52.26;98014.56;4455599;32;20105;-82
2023/05/02 00:36:15;;;;;;;8.93;2.97;;;;;;;16.53;51.25;98020.44;4455193;32;20146;-82
2023/05/02 00:38:42;;;;;;;6.80;2.65;;;;;;;16.32;51.04;98014.06;4455784;32;20119;-81
2023/05/02 00:41:09;;;;;;;9.30;3.15;;;;;;;15.27;53.36;98008.66;4455427;32;20112;-81
2023/05/02 00:43:38;;;;;;;7.30;2.72;;;;;;;15.87;52.90;98006.56;4455759;32;20101;-81
2023/05/02 00:46:06;;;;;;;8.15;3.30;;;;;;;15.84;52.84;98009.38;4455673;32;20589;-82
2023/05/02 00:48:35;;;;;;;6.68;2.80;;;;;;;14.78;55.52;97996.09;4455334;32;20118;-81
2023/05/02 00:51:07;;;;;;;7.00;2.85;;;;;;;14.31;58.31;97998.88;4455760;32;20097;-81
2023/05/02 00:53:35;;;;;;;8.35;2.83;;;;;;;14.56;56.91;97999.13;4455712;32;20100;-81
2023/05/02 00:56:01;;;;;;;11.00;3.20;;;;;;;14.51;56.93;98002.94;4454761;32;20157;-81
2023/05/02 00:58:29;;;;;;;7.20;2.80;;;;;;;15.04;55.52;97999.69;4455524;32;20085;-81
2023/05/02 01:01:17;;;;;;;10.68;3.58;;;;;;;15.54;53.53;97995.69;4441725;32;20101;-81
2023/05/02 01:03:59;;;;;;;9.40;3.25;;;;;;;15.00;54.50;97995.63;4455252;32;20111;-81
2023/05/02 01:06:41;;;;;;;11.32;3.15;;;;;;;15.12;54.46;98002.66;4455367;32;20144;-81
2023/05/02 01:09:37;;;;;;;8.13;3.03;;;;;;;15.37;53.44;98003.72;4455146;32;20432;-82
2023/05/02 01:12:22;;;;;;;8.07;3.10;;;;;;;15.58;52.72;98007.56;4455520;32;20089;-81
2023/05/02 01:14:56;;;;;;;7.45;3.00;;;;;;;15.49;52.74;98005.53;4455441;32;20111;-81
2023/05/02 01:17:31;;;;;;;8.82;2.95;;;;;;;15.38;52.43;98005.38;4441406;32;20520;-82
2023/05/02 01:20:04;;;;;;;10.68;3.20;;;;;;;15.22;52.55;98003.75;4455453;32;20078;-82
2023/05/02 01:22:31;;;;;;;8.55;3.15;;;;;;;15.03;53.09;98008.41;4441499;32;20094;-82
2023/05/02 01:25:01;;;;;;;9.30;2.85;;;;;;;14.55;54.70;98012.19;4440974;32;20162;-82
2023/05/02 01:28:08;;;;;;;7.82;3.12;;;;;;;14.75;54.01;98010.06;4455249;32;20093;-82
2023/05/02 01:30:37;;;;;;;7.47;2.30;;;;;;;15.42;51.87;98004.25;4454908;32;20081;-82
2023/05/02 01:33:05;;;;;;;8.93;3.50;;;;;;;16.19;49.75;98008.84;4441151;32;20116;-82
2023/05/02 01:35:33;;;;;;;6.62;2.90;;;;;;;16.45;48.63;98007.94;4440648;32;20105;-82
2023/05/02 01:38:01;;;;;;;10.40;3.33;;;;;;;16.47;48.46;98000.00;4440666;32;20093;-82
2023/05/02 01:40:28;;;;;;;6.62;2.87;;;;;;;15.73;50.43;97991.00;4455049;32;20081;-82
2023/05/02 01:42:56;;;;;;;7.62;2.62;;;;;;;16.14;48.80;97984.88;4441074;32;20101;-82
2023/05/02 01:45:23;;;;;;;8.95;2.90;;;;;;;15.79;49.61;97988.00;4439613;32;20108;-82
2023/05/02 01:47:51;;;;;;;7.72;3.03;;;;;;;15.26;51.17;97983.59;4441063;32;20161;-81
2023/05/02 01:50:21;;;;;;;8.98;2.85;;;;;;;15.47;50.15;97981.41;4455020;32;20077;-81
2023/05/02 01:52:50;;;;;;;7.45;3.15;;;;;;;15.64;49.71;97981.22;4454605;32;20097;-81
2023/05/02 01:55:17;;;;;;;10.18;3.08;;;;;;;16.86;46.91;97985.25;4440848;32;20105;-81
2023/05/02 01:57:46;;;;;;;7.45;2.95;;;;;;;16.77;46.92;97981.50;4454439;32;20504;-82
2023/05/02 02:00:15;;;;;;;9.35;3.20;;;;;;;17.17;46.27;97990.00;4454672;32;20107;-82
2023/05/02 02:02:43;;;;;;;6.25;2.97;;;;;;;16.49;47.57;97983.38;4454705;32;20097;-82
2023/05/02 02:05:11;;;;;;;12.13;3.28;;;;;;;16.12;48.44;97984.97;4440490;32;20169;-82
2023/05/02 02:07:38;;;;;;;6.45;2.90;;;;;;;16.08;48.83;97986.13;4440426;32;20466;-82
2023/05/02 02:10:06;;;;;;;9.65;3.10;;;;;;;16.19;48.47;97981.03;4442574;32;20493;-82
2023/05/02 02:12:41;;;;;;;7.57;3.05;;;;;;;14.79;52.09;97971.78;4456547;32;20089;-82
2023/05/02 02:15:16;;;;;;;9.15;3.10;;;;;;;14.95;51.84;97974.28;4456926;32;20104;-82
2023/05/02 02:17:46;;;;;;;6.18;2.62;;;;;;;15.26;50.44;97970.59;4442904;32;20462;-82
2023/05/02 02:20:14;;;;;;;5.43;2.25;;;;;;;15.47;49.22;97969.25;4456572;32;20576;-82
2023/05/02 02:22:42;;;;;;;6.97;3.03;;;;;;;14.96;50.84;97971.56;4442894;32;20101;-82
2023/05/02 02:25:15;;;;;;;9.48;2.97;;;;;;;15.46;49.37;97967.59;4442965;32;20119;-81
2023/05/02 02:27:42;;;;;;;8.43;3.00;;;;;;;14.87;50.87;97963.50;4456074;32;20433;-81
2023/05/02 02:30:10;;;;;;;8.77;2.80;;;;;;;15.39;49.59;97963.69;4442825;32;20579;-81
2023/05/02 02:32:37;;;;;;;8.02;2.92;;;;;;;14.91;50.67;97962.41;4456797;32;20448;-81
2023/05/02 02:35:04;;;;;;;7.65;2.70;;;;;;;15.19;49.64;97958.91;4456438;32;20093;-81
2023/05/02 02:37:34;;;;;;;8.18;3.00;;;;;;;14.04;53.90;97962.41;4456668;32;20157;-81
2023/05/02 02:40:12;;;;;;;7.75;2.97;;;;;;;15.29;50.04;97965.19;4442504;32;20085;-81
2023/05/02 02:42:44;;;;;;;6.85;2.83;;;;;;;15.34;50.08;97963.16;4456761;32;20414;-81
2023/05/02 02:45:45;;;;;;;9.07;3.53;;;;;;;15.20;50.59;97966.59;4442883;32;20105;-82
2023/05/02 02:48:32;;;;;;;8.05;3.17;;;;;;;14.79;51.33;97963.16;4456186;32;20431;-81
2023/05/02 02:51:14;;;;;;;9.45;3.37;;;;;;;14.27;52.69;97972.28;4456831;32;20072;-81
2023/05/02 02:53:47;;;;;;;10.30;3.25;;;;;;;14.17;53.02;97969.38;4442934;32;20486;-81
2023/05/02 02:56:18;;;;;;;8.88;3.25;;;;;;;15.44;49.60;97968.63;4456479;32;20102;-81
2023/05/02 02:58:51;;;;;;;7.68;2.83;;;;;;;15.66;48.60;97965.50;4442650;32;20134;-81
2023/05/02 03:01:20;;;;;;;9.50;3.10;;;;;;;14.49;51.96;97971.03;4442331;32;20089;-81
2023/05/02 03:03:47;;;;;;;11.10;4.03;;;;;;;14.53;51.73;97975.94;4442582;32;20129;-81
2023/05/02 03:06:18;;;;;;;11.23;3.28;;;;;;;13.72;54.20;97972.87;4442612;32;20109;-81
2023/05/02 03:08:45;;;;;;;11.32;3.85;;;;;;;13.95;53.57;97970.72;4442012;32;20080;-81
2023/05/02 03:11:12;;;;;;;8.57;3.40;;;;;;;14.26;52.44;97969.78;4456580;32;20081;-81
2023/05/02 03:13:39;;;;;;;11.25;3.60;;;;;;;14.81;50.84;97972.53;4456433;32;20097;-81
2023/05/02 03:16:40;;;;;;;9.52;3.55;;;;;;;14.83;51.09;97969.84;4455905;32;20380;-81
2023/05/02 03:19:07;;;;;;;7.90;3.20;;;;;;;14.57;51.77;97974.00;4456261;32;20100;-81
2023/05/02 03:21:35;;;;;;;8.23;3.30;;;;;;;14.28;52.39;97968.75;4456558;32;20120;-81
2023/05/02 03:24:03;;;;;;;8.57;3.37;;;;;;;14.91;50.92;97978.00;4456086;32;20424;-81
2023/05/02 03:26:30;;;;;;;7.95;3.55;;;;;;;15.07;50.15;97973.50;4456309;32;20102;-81
2023/05/02 03:28:57;;;;;;;7.97;3.30;;;;;;;14.30;52.70;97977.28;4455985;32;20093;-81
2023/05/02 03:31:24;;;;;;;11.60;3.53;;;;;;;15.50;49.16;97979.44;4456337;32;20077;-81
2023/05/02 03:33:53;;;;;;;6.95;3.15;;;;;;;15.60;48.66;97984.94;4456350;32;20144;-81
2023/05/02 03:36:20;;;;;;;8.40;3.28;;;;;;;16.46;46.83;97993.12;4455863;32;20112;-81
2023/05/02 03:38:47;;;;;;;8.68;3.03;;;;;;;16.68;46.40;97992.53;4456358;32;20114;-81
2023/05/02 03:41:14;;;;;;;11.12;3.45;;;;;;;15.84;47.97;97991.16;4456319;32;20486;-81
2023/05/02 03:43:41;;;;;;;10.35;2.97;;;;;;;15.82;48.30;97998.22;4455929;32;20427;-81
2023/05/02 03:46:10;;;;;;;12.07;4.10;;;;;;;16.11;47.89;97998.94;4456258;32;20101;-81
2023/05/02 03:48:37;;;;;;;11.00;4.37;;;;;;;15.55;49.42;97994.78;4456295;32;20081;-81
2023/05/02 03:51:06;;;;;;;11.27;4.28;;;;;;;15.64;49.72;98001.19;4455951;32;20424;-81
2023/05/02 03:53:33;;;;;;;10.02;4.35;;;;;;;15.19;50.59;97992.69;4456215;32;20108;-81
2023/05/02 03:56:00;;;;;;;9.52;4.07;;;;;;;15.36;50.37;97994.25;4442037;32;20447;-81
2023/05/02 03:58:27;;;;;;;11.63;4.05;;;;;;;15.62;49.99;97994.28;4455745;32;20085;-82
2023/05/02 04:00:54;;;;;;;10.50;3.65;;;;;;;15.98;49.78;97995.47;4456224;32;20146;-81
2023/05/02 04:03:21;;;;;;;10.32;4.10;;;;;;;16.28;49.01;97999.59;4456089;32;20085;-81
2023/05/02 04:05:50;;;;;;;11.18;3.92;;;;;;;16.79;48.10;97995.25;4455824;32;20455;-81
2023/05/02 04:08:17;;;;;;;11.02;3.90;;;;;;;17.03;46.40;98006.59;4455765;32;20088;-82
2023/05/02 04:10:45;;;;;;;9.50;3.95;;;;;;;17.01;45.64;98003.28;4456191;32;20072;-81
2023/05/02 04:13:12;;;;;;;10.85;3.75;;;;;;;17.16;45.06;98005.75;4455764;32;20097;-81
2023/05/02 04:15:39;;;;;;;8.10;3.50;;;;;;;16.86;45.64;97999.09;4455541;32;20439;-82
2023/05/02 04:18:06;;;;;;;10.10;4.35;;;;;;;16.85;46.08;98007.88;4455691;32;20146;-81
2023/05/02 04:20:33;;;;;;;15.43;5.47;;;;;;;18.06;43.03;98017.53;4456094;32;20077;-82
2023/05/02 04:23:00;;;;;;;10.10;4.45;;;;;;;17.81;44.02;98011.50;4455999;32;20538;-82
2023/05/02 04:25:27;;;;;;;10.80;4.35;;;;;;;17.97;43.66;98011.22;4455114;32;20085;-82
2023/05/02 04:27:54;;;;;;;10.65;4.00;;;;;;;17.21;45.19;98017.50;4455868;32;20092;-82
2023/05/02 04:30:21;;;;;;;10.10;3.85;;;;;;;17.34;45.39;98022.72;4455945;32;20138;-82
2023/05/02 04:32:48;;;;;;;9.95;4.00;;;;;;;17.96;44.14;98022.59;4454765;32;20154;-82
2023/05/02 04:35:16;;;;;;;9.77;3.58;;;;;;;17.71;45.01;98026.16;4455901;32;20093;-82
2023/05/02 04:37:43;;;;;;;9.75;3.40;;;;;;;17.91;44.55;98027.31;4455576;32;20469;-82
2023/05/02 04:40:10;;;;;;;10.75;3.47;;;;;;;18.88;42.49;98026.19;4455416;32;20428;-82
2023/05/02 04:42:37;;;;;;;10.25;3.83;;;;;;;18.70;42.47;98021.41;4455814;32;20431;-82
2023/05/02 04:45:05;;;;;;;11.48;3.78;;;;;;;18.97;42.54;98026.31;4455770;32;20605;-82
2023/05/02 04:47:32;;;;;;;9.77;3.35;;;;;;;19.57;41.87;98026.91;4455263;32;20085;-82
2023/05/02 04:49:59;;;;;;;8.93;3.42;;;;;;;20.63;39.71;98026.94;4455793;32;20085;-82
2023/05/02 04:52:26;;;;;;;9.15;4.32;;;;;;;21.32;37.80;98038.50;4455682;32;20096;-82
2023/05/02 04:54:53;;;;;;;9.80;3.60;;;;;;;22.29;36.21;98036.06;4455332;32;20400;-82
2023/05/02 04:57:20;;;;;;;9.02;3.80;;;;;;;23.02;34.91;98039.81;4455404;32;20154;-82
2023/05/02 04:59:49;;;;;;;10.25;3.85;;;;;;;23.59;34.02;98037.09;4455641;32;20484;-82
2023/05/02 05:02:16;;;;;;;8.07;3.55;;;;;;;24.08;33.78;98043.69;4455248;32;20097;-82
2023/05/02 05:04:44;;;;;;;9.45;3.87;;;;;;;25.02;32.95;98040.50;4455587;32;20097;-82
2023/05/02 05:07:11;;;;;;;9.05;3.87;;;;;;;23.88;35.07;98039.53;4454841;32;20582;-83
2023/05/02 05:09:38;;;;;;;9.02;4.05;;;;;;;22.93;36.34;98035.41;4455497;32;20142;-82
2023/05/02 05:12:05;;;;;;;8.25;3.78;;;;;;;21.66;39.04;98041.63;4455474;32;20113;-82
2023/05/02 05:14:33;;;;;;;9.45;4.00;;;;;;;19.66;43.92;98036.63;4455075;32;20440;-82
2023/05/02 05:17:00;;;;;;;9.82;3.75;;;;;;;19.84;44.54;98032.53;4455198;32;20367;-82
2023/05/02 05:19:26;;;;;;;10.48;4.37;;;;;;;19.15;47.06;98026.69;4455257;32;20089;-82
2023/05/02 05:21:53;;;;;;;12.10;4.80;;;;;;;20.25;45.06;98033.56;4455017;32;20101;-82
2023/05/02 05:24:20;;;;;;;11.15;4.97;;;;;;;19.77;46.25;98033.97;4455208;32;20093;-82
2023/05/02 05:26:47;;;;;;;12.57;5.60;;;;;;;19.08;46.97;98030.72;4455209;32;20085;-82
2023/05/02 05:29:14;;;;;;;12.65;5.45;;;;;;;19.10;47.57;98028.81;4454691;32;20073;-82
2023/05/02 05:31:41;;;;;;;13.88;5.07;;;;;;;19.72;47.27;98038.75;4455259;32;20113;-82
2023/05/02 05:34:08;;;;;;;12.37;5.05;;;;;;;20.57;44.85;98033.56;4455205;32;20162;-82
2023/05/02 05:36:36;;;;;;;11.15;5.50;;;;;;;20.77;44.24;98040.59;4453607;32;20171;-82
2023/05/02 05:39:03;;;;;;;12.93;5.47;;;;;;;19.36;47.03;98045.09;4455103;32;20174;-82
2023/05/02 05:41:30;;;;;;;13.52;4.80;;;;;;;19.92;46.33;98055.50;4455022;32;20171;-82
2023/05/02 05:43:57;;;;;;;12.68;5.07;;;;;;;19.46;47.42;98043.44;4456202;32;20097;-82
2023/05/02 05:46:24;;;;;;;14.18;5.50;;;;;;;19.61;47.85;98049.25;4443061;32;20430;-82
2023/05/02 05:48:51;;;;;;;12.80;5.47;;;;;;;19.97;47.62;98045.47;4456883;32;20077;-80
2023/05/02 05:51:17;;;;;;;12.95;5.82;;;;;;;20.21;46.06;98050.50;4456703;32;20108;-80
2023/05/02 05:53:44;;;;;;;19.90;5.97;;;;;;;20.21;46.44;98053.12;4456826;32;20111;-80
2023/05/02 05:56:12;;;;;;;11.65;5.30;;;;;;;20.42;47.22;98059.25;4456604;32;20085;-80
2023/05/02 05:58:40;;;;;;;12.43;5.05;;;;;;;20.83;45.35;98048.88;4456739;32;20089;-78
2023/05/02 06:01:07;;;;;;;13.23;5.03;;;;;;;19.99;46.01;98051.44;4456912;32;20094;-79
2023/05/02 06:03:34;;;;;;;13.27;5.65;;;;;;;20.13;46.66;98055.53;4456842;32;20166;-78
2023/05/02 06:06:01;;;;;;;10.63;5.10;;;;;;;19.61;47.25;98057.09;4456727;32;20154;-79
2023/05/02 06:08:28;;;;;;;14.18;5.50;;;;;;;20.59;45.75;98064.87;4456741;32;20556;-79
2023/05/02 06:10:55;;;;;;;11.30;5.65;;;;;;;20.64;46.84;98063.56;4456978;32;20107;-79
2023/05/02 06:13:21;;;;;;;13.00;6.28;;;;;;;21.16;44.24;98071.41;4456721;32;20101;-79
2023/05/02 06:15:48;;;;;;;12.20;5.80;;;;;;;21.43;43.83;98069.06;4456727;32;20089;-79
2023/05/02 06:18:15;;;;;;;10.13;5.03;;;;;;;21.37;44.15;98075.69;4456119;32;20081;-80
2023/05/02 06:20:42;;;;;;;13.48;5.60;;;;;;;21.14;44.92;98081.19;4461025;32;20080;-79
2023/05/02 06:23:09;;;;;;;12.73;5.72;;;;;;;20.19;47.43;98074.19;4459123;32;20101;-79
2023/05/02 06:25:37;;;;;;;13.25;5.75;;;;;;;19.91;47.51;98075.59;4456643;32;20121;-77
2023/05/02 06:28:04;;;;;;;11.38;5.70;;;;;;;19.73;49.17;98073.63;4456368;32;20077;-77
2023/05/02 06:30:31;;;;;;;12.18;5.47;;;;;;;20.03;49.22;98071.16;4456781;32;20101;-77
2023/05/02 06:32:58;;;;;;;11.75;5.72;;;;;;;20.04;48.63;98072.81;4456425;32;20089;-77
2023/05/02 06:35:25;;;;;;;12.40;5.25;;;;;;;20.37;48.60;98066.63;4456605;32;20091;-77
2023/05/02 06:37:52;;;;;;;12.13;5.10;;;;;;;19.27;50.98;98066.75;4456323;32;20130;-80
2023/05/02 06:40:19;;;;;;;13.50;6.32;;;;;;;19.84;50.09;98071.81;4456180;32;20467;-79
2023/05/02 06:42:46;;;;;;;11.57;5.37;;;;;;;19.77;50.70;98075.84;4442662;32;20109;-81
2023/05/02 06:45:13;;;;;;;16.67;6.07;;;;;;;19.92;49.04;98069.41;4456310;32;20383;-80
2023/05/02 06:47:39;;;;;;;13.05;6.10;;;;;;;20.30;49.09;98072.47;4456065;32;20600;-80
2023/05/02 06:50:07;;;;;;;14.27;5.40;;;;;;;20.19;48.92;98068.13;4456353;32;20093;-81
2023/05/02 06:52:34;;;;;;;11.68;5.53;;;;;;;20.54;48.49;98075.75;4456342;32;20101;-80
2023/05/02 06:55:01;;;;;;;12.05;4.90;;;;;;;20.96;47.68;98073.94;4456006;32;20076;-80
2023/05/02 06:57:28;;;;;;;11.63;5.03;;;;;;;20.22;49.39;98066.09;4456290;32;20411;-80
2023/05/02 06:59:54;;;;;;;10.65;4.90;;;;;;;20.71;48.70;98069.91;4456154;32;20120;-80
2023/05/02 07:02:21;;;;;;;11.15;5.03;;;;;;;20.89;47.16;98082.47;4456583;32;20097;-81
2023/05/02 07:04:48;;;;;;;10.30;4.95;;;;;;;21.59;45.90;98063.34;4456284;32;20175;-81
2023/05/02 07:07:17;;;;;;;9.82;4.70;;;;;;;22.04;44.64;98073.37;4455575;32;20143;-82
2023/05/02 07:09:44;;;;;;;12.43;4.60;;;;;;;21.99;44.27;98075.56;4456338;32;20138;-81
2023/05/02 07:12:11;;;;;;;11.40;4.50;;;;;;;21.48;45.56;98066.03;4456455;32;20153;-81
2023/05/02 07:14:38;;;;;;;10.07;4.65;;;;;;;21.91;44.82;98073.63;4456003;32;20120;-81
2023/05/02 07:17:05;;;;;;;9.55;4.30;;;;;;;22.16;44.82;98073.13;4456203;32;20424;-81
2023/05/02 07:19:32;;;;;;;14.25;4.57;;;;;;;20.85;47.03;98066.16;4456054;32;20132;-81
2023/05/02 07:21:59;;;;;;;9.35;4.60;;;;;;;21.62;47.21;98071.75;4456053;32;20151;-81
2023/05/02 07:24:26;;;;;;;9.50;4.68;;;;;;;22.09;44.00;98073.81;4456422;32;20367;-81
2023/05/02 07:26:53;;;;;;;9.02;4.03;;;;;;;22.06;41.70;98063.53;4456199;32;20081;-81
2023/05/02 07:29:20;;;;;;;9.45;4.25;;;;;;;22.18;43.12;98071.19;4455766;32;20097;-81
2023/05/02 07:31:47;;;;;;;12.07;4.60;;;;;;;22.38;41.72;98073.81;4456292;32;20153;-81
2023/05/02 07:34:14;;;;;;;10.02;4.60;;;;;;;22.73;40.58;98067.97;4456199;32;20081;-81
2023/05/02 07:36:41;;;;;;;8.98;4.20;;;;;;;23.44;39.44;98076.22;4455654;32;20122;-81
2023/05/02 07:39:08;;;;;;;9.60;4.12;;;;;;;23.52;40.80;98072.87;4456036;32;20589;-81
2023/05/02 07:41:35;;;;;;;10.23;4.50;;;;;;;23.55;40.50;98083.09;4456034;32;20518;-82
2023/05/02 07:44:02;;;;;;;8.77;4.32;;;;;;;23.43;39.99;98084.28;4456167;32;20145;-81
2023/05/02 07:46:29;;;;;;;9.65;4.20;;;;;;;23.67;39.02;98082.78;4456155;32;20107;-81
2023/05/02 07:48:56;;;;;;;10.45;4.30;;;;;;;23.45;40.47;98085.78;4455602;32;20459;-81
2023/05/02 07:51:25;;;;;;;10.48;4.22;;;;;;;24.04;38.47;98084.53;4456026;32;20093;-82
2023/05/02 07:53:53;;;;;;;12.25;4.57;;;;;;;24.14;37.80;98087.94;4456137;32;20415;-82
2023/05/02 07:56:20;;;;;;;9.07;4.70;;;;;;;23.93;39.49;98087.37;4455718;32;20104;-82
2023/05/02 07:58:47;;;;;;;8.70;3.65;;;;;;;23.80;38.02;98087.72;4455959;32;20535;-82
2023/05/02 08:01:14;;;;;;;11.48;4.50;;;;;;;23.37;40.62;98091.75;4456126;32;20101;-82
2023/05/02 08:03:41;;;;;;;15.43;5.53;;;;;;;22.94;39.95;98089.69;4455598;32;20142;-82
2023/05/02 08:06:08;;;;;;;10.13;4.40;;;;;;;22.78;39.62;98100.78;4454626;32;20415;-83
2023/05/02 08:08:36;;;;;;;9.40;4.50;;;;;;;23.43;38.81;98098.28;4455686;32;20105;-82
2023/05/02 08:11:03;;;;;;;13.93;4.85;;;;;;;23.65;39.01;98091.81;4455846;32;20149;-83
2023/05/02 08:13:30;;;;;;;9.82;4.30;;;;;;;23.94;37.71;98092.50;4455947;32;20085;-82
2023/05/02 08:15:57;;;;;;;10.75;4.70;;;;;;;23.72;38.54;98090.28;4455857;32;20081;-82
2023/05/02 08:18:24;;;;;;;9.07;4.30;;;;;;;23.71;38.35;98096.50;4455386;32;20175;-83
2023/05/02 08:20:54;;;;;;;9.60;3.87;;;;;;;24.15;38.51;98097.50;4456080;32;20108;-83
2023/05/02 08:23:21;;;;;;;9.93;4.55;;;;;;;22.93;39.58;98101.19;4455874;32;20167;-81
2023/05/02 08:25:48;;;;;;;8.77;4.40;;;;;;;23.32;39.66;98099.28;4455552;32;20073;-83
2023/05/02 08:28:15;;;;;;;8.90;4.07;;;;;;;24.15;37.34;98094.84;4455700;32;20456;-82
2023/05/02 08:30:44;;;;;;;9.73;4.15;;;;;;;23.21;40.51;98088.09;4455660;32;20145;-82
2023/05/02 08:33:10;;;;;;;9.00;4.55;;;;;;;22.87;41.40;98104.41;4455594;32;20085;-82
2023/05/02 08:36:33;;;;;;;9.60;4.50;;;;;;;23.03;40.97;98091.47;4455665;32;20085;-82
2023/05/02 08:39:00;;;;;;;9.68;4.22;;;;;;;23.66;39.32;98099.56;4455270;32;20122;-82
2023/05/02 08:41:28;;;;;;;10.25;4.70;;;;;;;24.04;39.44;98102.97;4455792;32;20105;-82
2023/05/02 08:43:55;;;;;;;9.38;4.28;;;;;;;24.63;36.40;98100.72;4455741;32;20446;-83
2023/05/02 08:46:23;;;;;;;9.63;3.87;;;;;;;23.62;38.91;98098.22;4441186;32;20089;-82
2023/05/02 08:48:50;;;;;;;9.07;4.57;;;;;;;23.26;39.00;98104.28;4455593;32;20115;-83
2023/05/02 08:51:17;;;;;;;9.30;4.22;;;;;;;22.99;39.43;98103.25;4441960;32;20109;-79
2023/05/02 08:53:45;;;;;;;9.80;4.00;;;;;;;23.37;39.54;98098.84;4455135;32;20092;-80
2023/05/02 08:56:12;;;;;;;8.75;3.92;;;;;;;22.78;41.17;98103.41;4455382;32;20104;-80
2023/05/02 08:58:40;;;;;;;8.32;4.10;;;;;;;23.58;38.11;98103.87;4455194;32;20718;-80
2023/05/02 09:01:20;;;;;;;10.85;4.12;;;;;;;24.09;37.08;98103.34;4455426;32;20089;-79
2023/05/02 09:03:47;;;;;;;8.23;3.90;;;;;;;24.75;36.82;98100.31;4455552;32;20084;-80
2023/05/02 09:06:15;;;;;;;9.23;4.00;;;;;;;24.44;38.35;98107.00;4454921;32;20461;-78
2023/05/02 09:08:44;;;;;;;8.70;3.78;;;;;;;24.14;38.20;98095.00;4454992;32;20522;-80
2023/05/02 09:11:12;;;;;;;8.35;3.50;;;;;;;23.72;38.78;98098.16;4455158;32;20093;-79
2023/05/02 09:13:50;;;;;;;7.82;3.37;;;;;;;23.95;37.42;98106.50;4454974;32;20080;-79
2023/05/02 09:16:21;;;;;;;7.50;3.85;;;;;;;23.27;39.21;98108.56;4455220;32;20387;-81
2023/05/02 09:18:56;;;;;;;9.63;3.85;;;;;;;23.27;38.73;98113.84;4456388;32;20120;-81
2023/05/02 09:21:25;;;;;;;8.02;3.60;;;;;;;23.11;39.71;98108.34;4456835;32;20159;-81
2023/05/02 09:23:56;;;;;;;7.28;3.42;;;;;;;23.26;38.99;98104.28;4457051;32;20092;-78
2023/05/02 09:26:33;;;;;;;7.87;3.70;;;;;;;23.70;39.57;98110.63;4457062;32;20073;-79
2023/05/02 09:29:04;;;;;;;8.02;3.70;;;;;;;24.49;38.89;98100.31;4442773;32;20123;-79
2023/05/02 09:31:35;;;;;;;8.32;3.62;;;;;;;23.90;39.18;98101.66;4457165;32;20154;-80
2023/05/02 09:34:21;;;;;;;6.90;3.67;;;;;;;23.38;39.06;98103.13;4456829;32;20456;-80
2023/05/02 09:36:50;;;;;;;7.47;3.55;;;;;;;23.11;40.06;98093.41;4456945;32;20081;-80
2023/05/02 09:39:21;;;;;;;8.65;3.65;;;;;;;23.80;38.50;98103.50;4456727;32;20120;-79
2023/05/02 09:41:51;;;;;;;6.93;3.20;;;;;;;23.98;38.19;98097.47;4443255;32;20459;-80
2023/05/02 09:44:21;;;;;;;8.48;3.40;;;;;;;24.15;36.99;98105.41;4457202;32;20084;-80
2023/05/02 09:47:00;;;;;;;8.32;3.55;;;;;;;24.38;39.25;98095.25;4457001;32;20459;-80
2023/05/02 09:49:44;;;;;;;8.07;3.80;;;;;;;24.58;36.42;98109.13;4456462;32;20120;-79
2023/05/02 09:52:16;;;;;;;7.47;3.22;;;;;;;24.29;37.00;98101.41;4457007;32;20147;-79
2023/05/02 09:54:45;;;;;;;8.05;3.65;;;;;;;24.04;38.99;98100.34;4456926;32;20138;-79
2023/05/02 09:57:12;;;;;;;10.82;3.35;;;;;;;23.92;39.24;98101.50;4456576;32;20081;-79
2023/05/02 09:59:39;;;;;;;13.55;3.20;;;;;;;24.26;40.33;98108.78;4456725;32;20142;-80
2023/05/02 10:02:09;;;;;;;7.03;3.40;;;;;;;24.19;38.30;98098.00;4456515;32;20444;-80
2023/05/02 10:04:37;;;;;;;8.30;3.47;;;;;;;24.93;37.49;98092.38;4456994;32;20103;-79
2023/05/02 10:07:09;;;;;;;9.07;3.65;;;;;;;24.43;37.86;98098.25;4456587;32;20149;-80
2023/05/02 10:09:39;;;;;;;10.45;3.97;;;;;;;24.36;37.62;98091.12;4456369;32;20093;-81
2023/05/02 10:12:07;;;;;;;11.07;3.40;;;;;;;25.20;38.15;98098.50;4457592;32;20101;-80
2023/05/02 10:14:46;;;;;;;6.87;3.12;;;;;;;25.30;35.91;98089.50;4458057;32;20085;-81
2023/05/02 10:17:21;;;;;;;7.65;3.35;;;;;;;25.34;34.38;98085.56;4456552;32;20376;-81
2023/05/02 10:20:05;;;;;;;11.10;3.53;;;;;;;24.33;38.26;98078.22;4443054;32;20143;-80
2023/05/02 10:22:33;;;;;;;7.65;3.15;;;;;;;24.83;39.08;98093.47;4456830;32;20123;-80
2023/05/02 10:25:01;;;;;;;5.90;2.60;;;;;;;24.55;37.10;98090.94;4456244;32;20089;-79
2023/05/02 10:27:30;;;;;;;7.55;3.05;;;;;;;24.72;38.25;98086.63;4456526;32;20085;-80
2023/05/02 10:29:58;;;;;;;7.05;3.30;;;;;;;24.51;36.50;98076.41;4441650;32;20132;-80
2023/05/02 10:32:28;;;;;;;8.77;3.72;;;;;;;25.06;36.48;98087.53;4456661;32;20101;-80
2023/05/02 10:35:03;;;;;;;8.27;3.70;;;;;;;24.56;37.03;98078.56;4456684;32;20160;-79
2023/05/02 10:37:34;;;;;;;7.93;3.58;;;;;;;24.75;37.63;98084.50;4456209;32;20081;-80
2023/05/02 10:40:01;;;;;;;8.57;3.62;;;;;;;25.12;35.96;98077.38;4442865;32;20478;-80
2023/05/02 10:42:29;;;;;;;8.20;3.83;;;;;;;25.44;36.67;98090.72;4456546;32;20092;-80
2023/05/02 10:44:56;;;;;;;7.93;3.37;;;;;;;26.60;36.14;98081.13;4442275;32;20184;-81
2023/05/02 10:47:26;;;;;;;8.50;3.80;;;;;;;25.35;36.90;98081.94;4456429;32;20168;-80
2023/05/02 10:49:59;;;;;;;9.55;3.28;;;;;;;25.35;35.00;98076.66;4456483;32;20105;-80
2023/05/02 10:52:37;;;;;;;7.93;3.83;;;;;;;25.58;35.43;98078.72;4456240;32;20105;-80
2023/05/02 10:55:20;;;;;;;9.52;3.97;;;;;;;25.32;35.49;98081.44;4456553;32;20176;-80
2023/05/02 10:57:59;;;;;;;7.00;2.87;;;;;;;26.03;35.14;98085.50;4456427;32;20082;-80
2023/05/02 11:00:31;;;;;;;8.35;3.47;;;;;;;24.67;37.20;98079.19;4456437;32;20154;-80
2023/05/02 11:02:58;;;;;;;7.68;2.80;;;;;;;25.44;35.62;98082.81;4456636;32;20140;-80
2023/05/02 11:05:26;;;;;;;7.05;3.42;;;;;;;25.70;34.92;98077.47;4456081;32;20432;-80
2023/05/02 11:08:23;;;;;;;8.95;3.53;;;;;;;25.44;36.29;98090.72;4441997;32;20094;-81
2023/05/02 11:10:50;;;;;;;12.48;3.90;;;;;;;26.27;35.55;98084.72;4439880;32;20101;-80
2023/05/02 11:13:49;;;;;;;9.55;3.60;;;;;;;26.04;35.07;98081.84;4442057;32;20104;-80
2023/05/02 11:16:16;;;;;;;8.20;3.17;;;;;;;26.47;34.14;98086.91;4456338;32;20366;-80
2023/05/02 11:18:59;;;;;;;9.88;3.70;;;;;;;26.18;34.27;98089.19;4456098;32;20100;-80
2023/05/02 11:21:28;;;;;;;9.57;4.00;;;;;;;26.24;34.82;98091.16;4456260;32;20094;-80
2023/05/02 11:24:32;;;;;;;7.07;3.28;;;;;;;26.00;35.04;98086.66;4456279;32;20089;-80
2023/05/02 11:27:30;;;;;;;10.10;3.42;;;;;;;25.64;37.68;98094.78;4456043;32;20803;-80
2023/05/02 11:29:58;;;;;;;7.18;3.45;;;;;;;25.68;35.82;98092.62;4456159;32;20116;-80
2023/05/02 11:32:44;;;;;;;9.15;3.70;;;;;;;25.48;35.75;98096.53;4456386;32;20102;-80
2023/05/02 11:35:21;;;;;;;7.70;3.70;;;;;;;24.90;37.07;98092.72;4455780;32;20093;-80
2023/05/02 11:37:54;;;;;;;7.05;3.30;;;;;;;25.64;36.62;98086.84;4455752;32;20101;-80
2023/05/02 11:40:22;;;;;;;8.18;3.70;;;;;;;25.44;35.99;98089.91;4455871;32;20073;-81
2023/05/02 11:42:48;;;;;;;11.73;4.30;;;;;;;25.04;37.31;98084.25;4442534;32;20166;-81